createdAt,value
2019-01-14T00:00:48.411Z,0.60
2019-01-14T00:05:52.943Z,0.60
2019-01-14T00:10:59.013Z,0.60
2019-01-14T00:16:02.604Z,0.60
2019-01-14T00:21:06.208Z,0.70
2019-01-14T00:26:10.960Z,0.70
2019-01-14T00:31:15.106Z,0.60
2019-01-14T00:36:19.968Z,0.60
2019-01-14T00:41:41.468Z,0.67
2019-01-14T00:46:44.538Z,0.60
2019-01-14T00:52:05.748Z,0.60
2019-01-14T00:57:08.523Z,0.70
2019-01-14T01:02:11.383Z,0.60
2019-01-14T01:07:17.401Z,0.60
2019-01-14T01:12:21.372Z,0.60
2019-01-14T01:17:25.478Z,0.70
2019-01-14T01:22:28.529Z,0.60
2019-01-14T01:27:31.418Z,0.60
2019-01-14T01:32:34.198Z,0.73
2019-01-14T01:37:40.628Z,0.50
2019-01-14T01:42:43.716Z,0.60
2019-01-14T01:47:46.723Z,0.60
2019-01-14T01:52:49.719Z,0.63
2019-01-14T01:57:52.572Z,0.73
2019-01-14T02:02:58.346Z,0.70
2019-01-14T02:08:10.429Z,0.60
2019-01-14T02:13:15.113Z,0.50
2019-01-14T02:18:18.475Z,0.60
2019-01-14T02:23:30.643Z,0.57
2019-01-14T02:28:34.305Z,0.70
2019-01-14T02:33:38.429Z,0.60
2019-01-14T02:38:42.696Z,0.50
2019-01-14T02:43:48.789Z,0.60
2019-01-14T02:48:54.563Z,0.70
2019-01-14T02:53:59.128Z,0.60
2019-01-14T02:59:03.733Z,0.60
2019-01-14T03:04:08.085Z,0.60
2019-01-14T03:09:10.968Z,0.60
2019-01-14T03:14:18.608Z,0.60
2019-01-14T03:19:24.483Z,0.63
2019-01-14T03:24:27.335Z,0.63
2019-01-14T03:29:31.136Z,0.60
2019-01-14T03:34:34.601Z,0.60
2019-01-14T03:39:38.510Z,0.50
2019-01-14T03:44:43.563Z,0.70
2019-01-14T03:49:48.119Z,0.70
2019-01-14T03:54:51.995Z,0.60
2019-01-14T03:59:55.813Z,0.60
2019-01-14T04:04:58.639Z,0.60
2019-01-14T04:10:02.190Z,0.60
2019-01-14T04:15:07.639Z,0.73
2019-01-14T04:20:12.974Z,0.60
2019-01-14T04:25:17.078Z,0.87
2019-01-14T04:30:21.772Z,1.70
2019-01-14T04:35:26.754Z,0.70
2019-01-14T04:40:30.500Z,0.80
2019-01-14T04:45:33.367Z,1.23
2019-01-14T04:50:38.055Z,0.90
2019-01-14T04:55:41.603Z,1.73
2019-01-14T05:00:47.404Z,1.20
2019-01-14T05:05:50.702Z,1.70
2019-01-14T05:10:55.987Z,1.00
2019-01-14T05:16:17.266Z,0.87
2019-01-14T05:21:20.101Z,0.80
2019-01-14T05:26:23.803Z,1.53
2019-01-14T05:31:45.809Z,0.80
2019-01-14T05:36:48.555Z,0.73
2019-01-14T05:41:53.466Z,1.17
2019-01-14T05:47:00.835Z,1.00
2019-01-14T05:52:07.194Z,0.97
2019-01-14T05:57:10.682Z,1.20
2019-01-14T06:02:17.141Z,0.87
2019-01-14T06:07:21.812Z,1.43
2019-01-14T06:12:34.587Z,1.27
2019-01-14T06:17:39.864Z,1.37
2019-01-14T06:22:43.695Z,1.27
2019-01-14T06:27:48.335Z,1.00
2019-01-14T06:32:56.107Z,1.37
2019-01-14T06:38:10.015Z,1.60
2019-01-14T06:43:16.128Z,1.80
2019-01-14T06:48:43.169Z,1.93
2019-01-14T06:53:45.991Z,2.47
2019-01-14T06:58:49.102Z,1.70
2019-01-14T07:03:55.817Z,2.10
2019-01-14T07:08:58.597Z,1.40
2019-01-14T07:14:02.219Z,1.27
2019-01-14T07:19:05.351Z,1.50
2019-01-14T07:24:12.709Z,1.03
2019-01-14T07:29:15.617Z,1.40
2019-01-14T07:34:20.292Z,1.77
2019-01-14T07:39:29.450Z,1.40
2019-01-14T07:44:33.254Z,1.90
2019-01-14T07:49:36.735Z,1.80
2019-01-14T07:54:48.474Z,1.30
2019-01-14T07:59:58.731Z,2.00
2019-01-14T08:05:25.868Z,1.60
2019-01-14T08:10:29.288Z,1.70
2019-01-14T08:15:32.891Z,1.10
2019-01-14T08:20:37.543Z,0.87
2019-01-14T08:25:40.812Z,1.60
2019-01-14T08:30:44.539Z,1.70
2019-01-14T08:35:48.431Z,1.60
2019-01-14T08:40:51.801Z,1.30
2019-01-14T08:45:56.152Z,1.60
2019-01-14T08:51:02.263Z,1.53
2019-01-14T08:56:05.739Z,1.90
2019-01-14T09:01:09.171Z,1.53
2019-01-14T09:06:15.956Z,1.50
2019-01-14T09:11:28.216Z,2.00
2019-01-14T09:16:31.821Z,1.30
2019-01-14T09:21:38.790Z,1.33
2019-01-14T09:26:42.268Z,1.03
2019-01-14T09:32:03.928Z,1.10
2019-01-14T09:37:07.243Z,2.00
2019-01-14T09:42:11.756Z,1.63
2019-01-14T09:47:14.810Z,1.47
2019-01-14T09:52:17.822Z,2.03
2019-01-14T09:57:42.191Z,1.83
2019-01-14T10:02:55.536Z,2.00
2019-01-14T10:08:01.107Z,2.50
2019-01-14T10:13:07.166Z,1.57
2019-01-14T10:18:28.500Z,1.80
2019-01-14T10:23:33.188Z,1.70
2019-01-14T10:28:36.186Z,1.77
2019-01-14T10:33:40.819Z,1.43
2019-01-14T10:38:50.280Z,0.83
2019-01-14T10:43:49.727Z,2.07
2019-01-14T10:48:56.335Z,2.10
2019-01-14T10:54:01.388Z,1.67
2019-01-14T10:59:04.772Z,1.63
2019-01-14T11:04:13.301Z,1.73
2019-01-14T11:09:16.326Z,1.10
2019-01-14T11:14:19.718Z,0.80
2019-01-14T11:19:26.559Z,0.90
2019-01-14T11:24:49.306Z,0.90
2019-01-14T11:30:14.937Z,1.00
2019-01-14T11:35:17.765Z,1.40
2019-01-14T11:40:34.341Z,0.90
2019-01-14T11:45:41.547Z,1.13
2019-01-14T11:50:53.466Z,1.00
2019-01-14T11:56:00.167Z,0.80
2019-01-14T12:01:04.774Z,1.20
2019-01-14T12:06:10.387Z,1.10
2019-01-14T12:11:13.139Z,1.00
2019-01-14T12:16:16.443Z,1.00
2019-01-14T12:21:21.548Z,1.03
2019-01-14T12:26:28.887Z,1.40
2019-01-14T12:31:35.617Z,1.47
2019-01-14T12:36:38.759Z,1.33
2019-01-14T12:41:59.947Z,1.57
2019-01-14T12:47:03.430Z,1.80
2019-01-14T12:52:08.414Z,1.80
2019-01-14T12:57:11.839Z,2.00
2019-01-14T13:02:14.627Z,1.77
2019-01-14T13:07:19.535Z,2.80
2019-01-14T13:12:22.463Z,1.80
2019-01-14T13:17:25.927Z,1.20
2019-01-14T13:22:29.288Z,1.53
2019-01-14T13:27:32.503Z,1.67
2019-01-14T13:32:37.315Z,1.83
2019-01-14T13:37:43.875Z,1.90
2019-01-14T13:42:50.325Z,1.40
2019-01-14T13:47:58.270Z,1.67
2019-01-14T13:53:19.521Z,1.63
2019-01-14T13:58:36.475Z,1.70
2019-01-14T14:03:39.323Z,0.90
2019-01-14T14:09:00.982Z,1.77
2019-01-14T14:14:03.719Z,1.40
2019-01-14T14:19:25.784Z,1.43
2019-01-14T14:24:32.414Z,1.53
2019-01-14T14:29:53.578Z,1.27
2019-01-14T14:34:57.102Z,1.53
2019-01-14T14:40:18.267Z,0.90
2019-01-14T14:45:21.391Z,0.70
2019-01-14T14:50:43.202Z,1.03
2019-01-14T14:55:46.383Z,0.80
2019-01-14T15:00:52.564Z,1.67
2019-01-14T15:05:56.047Z,0.80
2019-01-14T15:11:02.381Z,0.77
2019-01-14T15:16:06.091Z,1.47
2019-01-14T15:21:16.725Z,1.30
2019-01-14T15:26:37.790Z,0.90
2019-01-14T15:31:40.571Z,2.23
2019-01-14T15:36:52.492Z,1.07
2019-01-14T15:42:15.035Z,1.50
2019-01-14T15:47:52.911Z,0.90
2019-01-14T15:53:13.764Z,1.00
2019-01-14T15:58:26.353Z,0.70
2019-01-14T16:03:48.016Z,0.90
2019-01-14T16:08:50.799Z,1.10
2019-01-14T16:13:54.447Z,0.83
2019-01-14T16:18:57.200Z,1.40
2019-01-14T16:24:04.267Z,1.57
2019-01-14T16:29:11.233Z,1.80
2019-01-14T16:34:20.735Z,1.50
2019-01-14T16:39:26.123Z,1.53
2019-01-14T16:44:38.431Z,1.23
2019-01-14T16:50:00.624Z,1.63
2019-01-14T16:55:04.645Z,1.57
2019-01-14T17:00:26.425Z,1.00
2019-01-14T17:05:31.767Z,1.40
2019-01-14T17:16:49.031Z,1.40
2019-01-14T17:21:53.239Z,1.73
2019-01-14T17:26:56.680Z,1.63
2019-01-14T17:32:02.933Z,1.17
2019-01-14T17:37:09.979Z,1.60
2019-01-14T17:42:33.314Z,1.30
2019-01-14T17:47:40.656Z,1.60
2019-01-14T17:52:48.752Z,0.90
2019-01-14T17:57:54.915Z,0.80
2019-01-14T18:03:01.938Z,0.87
2019-01-14T18:08:05.267Z,1.30
2019-01-14T18:13:13.292Z,0.80
2019-01-14T18:18:16.446Z,1.33
2019-01-14T18:23:19.283Z,1.10
2019-01-14T18:28:24.079Z,1.73
2019-01-14T18:33:37.612Z,1.67
2019-01-14T18:38:44.116Z,1.53
2019-01-14T18:44:09.630Z,0.90
2019-01-14T18:49:31.273Z,2.20
2019-01-14T18:54:34.323Z,1.60
2019-01-14T18:59:55.310Z,1.27
2019-01-14T19:04:59.151Z,1.43
2019-01-14T19:10:22.691Z,1.53
2019-01-14T19:15:28.681Z,1.10
2019-01-14T19:20:49.712Z,2.10
2019-01-14T19:25:52.451Z,2.33
2019-01-14T19:31:18.809Z,1.73
2019-01-14T19:36:21.940Z,1.63
2019-01-14T19:41:43.477Z,1.83
2019-01-14T19:46:46.557Z,2.03
2019-01-14T19:52:08.212Z,1.70
2019-01-14T19:57:11.109Z,1.80
2019-01-14T20:02:32.326Z,1.10
2019-01-14T20:07:38.628Z,1.50
2019-01-14T20:13:02.596Z,1.30
2019-01-14T20:18:06.225Z,1.83
2019-01-14T20:23:34.073Z,1.90
2019-01-14T20:28:39.707Z,1.80
2019-01-14T20:34:01.317Z,1.70
2019-01-14T20:39:08.246Z,1.03
2019-01-14T20:44:29.468Z,1.30
2019-01-14T20:49:33.163Z,1.10
2019-01-14T20:54:54.819Z,1.10
2019-01-14T21:00:25.078Z,0.93
2019-01-14T21:05:46.115Z,1.30
2019-01-14T21:11:23.841Z,1.50
2019-01-14T21:16:42.690Z,1.40
2019-01-14T21:21:46.709Z,1.80
2019-01-14T21:27:11.407Z,1.43
2019-01-14T21:32:15.106Z,1.87
2019-01-14T21:37:36.545Z,1.60
2019-01-14T21:42:56.623Z,1.30
2019-01-14T21:48:19.412Z,1.47
2019-01-14T21:53:22.419Z,1.50
2019-01-14T21:58:34.320Z,1.90
2019-01-14T22:03:55.532Z,2.23
2019-01-14T22:09:00.267Z,1.03
2019-01-14T22:14:21.759Z,1.73
2019-01-14T22:19:43.560Z,2.13
2019-01-14T22:24:46.539Z,1.87
2019-01-14T22:30:11.214Z,1.17
2019-01-14T22:35:16.195Z,1.87
2019-01-14T22:40:38.576Z,1.57
2019-01-14T22:45:42.088Z,0.73
2019-01-14T22:50:45.575Z,1.30
2019-01-14T22:56:08.119Z,1.83
2019-01-14T23:01:22.049Z,1.70
2019-01-14T23:06:43.219Z,1.30
2019-01-14T23:11:53.033Z,1.30
2019-01-14T23:17:09.803Z,1.43
2019-01-14T23:22:12.819Z,1.57
2019-01-14T23:27:34.026Z,1.30
2019-01-14T23:32:38.262Z,2.03
2019-01-14T23:37:59.326Z,1.00
2019-01-14T23:43:02.098Z,0.93
2019-01-14T23:48:23.339Z,1.83
2019-01-14T23:53:27.284Z,1.27
2019-01-14T23:58:50.863Z,1.53
